Decoded Metar for LPMA (FUNCHAL/MADEIRA in PORTUGAL) (IATA:N/A) | Meteo·Mobile Aviation Weather
aviador You're here:

LPMA Decoded Metar

FUNCHAL/MADEIRA in PORTUGAL
Report Time2019-07-21 17:30:00
UTC Time2019-07-21 17:50:50
Flight Rules vfr VFR
Wind010° at 11 kt
W.Decomp.*RWY 05: 9.1 kt HW 6.2 kt LCW
Visibility9999 m
Phenomena:N/A
Clouds:Few 020 Hf
Expected CloudBase > 3,200 ft AGL from Temp-Dew spread
CeilingNone
Temp24°C (ISA +9)
Dew Point16°C (61% RH)
AAT22.0°C
QNH1022 hPa
Density Alt1,207 ft
Elevation180 ft
Report Wrong Elevation
Raw Report
LPMA 211730Z 01011KT 320V050 9999 FEW020 24/16 Q1022=

Extra information for LPMA:More info

Metar Taf Metar & Taf Last 4 Metars F.Rules Stats Wind Profile Meteogram Temp Stats Airport Information Weather charts Add Link Nearby VenuesMetar ALERT Operation Metar Decoded Social comments